Zadar, Croatia

6:49 AM CEST on October 22, 2014 (GMT +0200)
Zemunik | Change Station
CLOSE
Current Station
Airport
Location: Zadar,
Elevation: 269 ft
Nearby Weather Stations

Elev 269 ft 44.10 °N, 15.36 °E | Updated 19 minutes ago

Mostly Cloudy
Mostly Cloudy
66 °F
Feels Like 66 °F
N
14
Wind Variable Wind from SSE

Today
High -- | Low -- °F
--% Chance of Precip.
Yesterday
High -- | Low -- °F
Precip. -- in
7:21 AM 6:03 PM
Waning Crescent, 3% visible
Pressure 29.53 in
Visibility 6.2 miles
Clouds Few 1000 ft
Scattered Clouds 3000 ft
Mostly Cloudy 7000 ft
Dew Point 66 °F
Humidity 100%
Rainfall 0.00 in
Snow Depth Not available.
UV 0 out of 12
Pollen Not available.
Air Quality Not available.
Flu Activity Not available.
METAR LDZD 220430Z 16012KT 9999 FEW010 SCT030 BKN070 19/19 Q1000 NOSIG

More Conditions Fewer Conditions

Pressure 29.53 in
Visibility 6.2 miles
Clouds Few 1000 ft
Scattered Clouds 3000 ft
Mostly Cloudy 7000 ft
Dew Point 66 °F
Humidity 100%
Rainfall 0.00 in
Snow Depth Not available.
UV 0 out of 12
Pollen Not available.
Air Quality Not available.
Flu Activity Not available.
METAR LDZD 220430Z 16012KT 9999 FEW010 SCT030 BKN070 19/19 Q1000 NOSIG

More Conditions Fewer Conditions

10-Day Weather Forecast

Almanac

Astronomy

Oct. 22, 2014 Rise Set
Actual Time 7:21 AM CEST 6:03 PM CEST
Civil Twilight 6:52 AM CEST 6:33 PM CEST
Nautical Twilight 6:18 AM CEST 7:06 PM CEST
Astronomical Twilight 5:45 AM CEST 7:40 PM CEST
Moon 5:43 AM CEST 5:22 PM CEST
Length of Visible Light 11h 40m
Length of Day
10h 41m
Tomorrow will be 2m 51s shorter.
Waning Crescent, 3% of the Moon is Illuminated
Today
Waning Crescent
Oct 23
New
Oct 30
First Quarter
Nov 6
Full
Nov 14
Last Quarter

Yesterday's Extremes

Country Highs Country Lows

Community

WunderPhotos

Upload Photos

1,763,882 photos uploaded!

Nearby

Snow Depth

Not available.

Earthquake Activity

City Distance Mag. Time & Date
No recent earthquake activity has been reported nearby.
Minimum magnitude displayed is 2.5.

Coastal Water Temperatures

Place Temperature
No Stations Reporting

Nearby Weather Stations